Aeroporto :
LOGIN :

Iscrizione | Disclaimer

   EN    FR    IT 

 










Sommario :    VFR   VFR Marginale   IFR   IFR Intensivo   IFR Molto Intensivo
Visibilità : 
Base nubi : 
>= 8 km
>= 3000ft
5 / 8 km
1000 / 3000 ft
1500m / 5 km
500 / 1000 ft
800 / 1500m
200 / 500 ft
< 800m
< 200 ft
Simboli :   Temporali  Nebbia  Neve Forte  Precipitazioni Forti  Vento > 20 kt
SIGMETs :   Varie  Temporali  Ghiacco  Turbolenza  Onda orograficha  Ceneri Vulcaniche







- Altitudine del aeroporto : 333 ft


LIPL - Ghedi Brescia (Mil)

ULTIMO METAR :
  • 191355Z 21002KT CAVOK 20/08 Q1029 RMK SKC VIS MIN 9999 WIND THR31 10004KT WIND THR13 11005KT BLU

METARs OBSOLETI :
  • 191255Z 26002KT CAVOK 20/08 Q1029 RMK SKC VIS MIN 9999 WIND THR31 15006KT WIND THR13 16005KT BLU
  • 191155Z 10004KT CAVOK 20/09 Q1030 RMK SKC VIS MIN 9999 WIND THR31 15004KT WIND THR13 15004KT BLU

TAF TAF LIPL
Valido dal 19 a 12 ore il 19 a 21 ore UTC


191100Z 1912/1921 12005KT 9999 FEW080
Nessun NOTAM noto per questo aeroporto.



MetMap, La meteo Aeronautica in un colpo d'occhio ! - Copyright ORBIFLY Dicembre 2007 - Disclaimer

ORBIFLY MET'MAP TEAM :

Programmazione e sviluppo : Alexandra Zaïnal
Concezione e sviluppo : Baudouin d'Aumeries
Co-Programmazione e sviluppo : Marc-Olivier Méhu
Supporto tecnico e logistico : Manuel Goepfert
Aiuto per la traduzione : Arnaldo La Scala

Contatto : metmap@orbifly.com




FONTI E CREDITI :

   NOAA